CheckWX is a tool to help pilots better visualize weather data.  It is not intended as a substitute for an official pre-flight weather briefing.

00:01:17 UTC

HELX TAF
Luxor International Airport
Luxor, Egypt
TAF HELX 222300Z 2300/2406 VRB03KT CAVOK TEMPO 2305/2310 6000 NSC BECMG 2310/2312 32008KT

Oct-23@
00:00 UTC

Oct-23 @ 00:00 UTC

Oct-23@
10:00 UTC

Oct-23 @ 10:00 UTC

TAF HELX 222300Z 2300/2406 VRB03KT CAVOK
Wind
  • Variable at 3 KTS
Conditions
No significant weather
Cloud Levels
  • No significant clouds

Oct-23@
05:00 UTC

Oct-23 @ 05:00 UTC

Oct-23@
10:00 UTC

Oct-23 @ 10:00 UTC

TEMPO 2305/2310 6000 NSC

Temporary

Temporary Changes expected for less than half the time period

Cloud Levels
  • No significant clouds

Oct-23@
10:00 UTC

Oct-23 @ 10:00 UTC

Oct-24@
06:00 UTC

Oct-24 @ 06:00 UTC

BECMG 2310/2312 32008KT

Becoming

Becoming Conditions expected by Wed, Oct 23, 2019 @ 12:00 UTC

Wind
  • 320° at 8 KTS
Conditions
No significant weather
Cloud Levels
  • No significant clouds